sensor_id;sensor_type;location;lat;lon;timestamp;P1;durP1;ratioP1;P2;durP2;ratioP2
12418;SDS011;6273;52.312;9.178;2022-09-03T00:01:23;0.70;;;0.60;;
12418;SDS011;6273;52.312;9.178;2022-09-03T00:04:04;3.77;;;1.03;;
12418;SDS011;6273;52.312;9.178;2022-09-03T00:06:42;1.20;;;1.10;;
12418;SDS011;6273;52.312;9.178;2022-09-03T00:11:59;2.23;;;0.70;;
12418;SDS011;6273;52.312;9.178;2022-09-03T00:14:33;3.43;;;0.77;;
12418;SDS011;6273;52.312;9.178;2022-09-03T00:17:08;3.47;;;0.97;;
12418;SDS011;6273;52.312;9.178;2022-09-03T00:19:44;2.37;;;0.80;;
12418;SDS011;6273;52.312;9.178;2022-09-03T00:22:24;2.37;;;0.73;;
12418;SDS011;6273;52.312;9.178;2022-09-03T00:24:57;3.23;;;0.70;;
12418;SDS011;6273;52.312;9.178;2022-09-03T00:27:27;0.87;;;0.73;;
12418;SDS011;6273;52.312;9.178;2022-09-03T00:30:05;1.23;;;0.87;;
12418;SDS011;6273;52.312;9.178;2022-09-03T00:35:15;1.10;;;0.80;;
12418;SDS011;6273;52.312;9.178;2022-09-03T00:37:47;1.40;;;0.83;;
12418;SDS011;6273;52.312;9.178;2022-09-03T00:40:20;1.20;;;0.50;;
12418;SDS011;6273;52.312;9.178;2022-09-03T00:42:58;1.60;;;0.73;;
12418;SDS011;6273;52.312;9.178;2022-09-03T00:48:19;2.27;;;0.90;;
12418;SDS011;6273;52.312;9.178;2022-09-03T00:56:31;2.90;;;1.00;;
12418;SDS011;6273;52.312;9.178;2022-09-03T01:13:20;0.87;;;0.70;;
12418;SDS011;6273;52.312;9.178;2022-09-03T01:18:34;4.13;;;0.87;;
12418;SDS011;6273;52.312;9.178;2022-09-03T01:32:03;4.10;;;0.93;;
12418;SDS011;6273;52.312;9.178;2022-09-03T01:37:53;2.10;;;1.20;;
12418;SDS011;6273;52.312;9.178;2022-09-03T01:40:45;1.57;;;0.80;;
12418;SDS011;6273;52.312;9.178;2022-09-03T01:43:22;3.33;;;1.10;;
12418;SDS011;6273;52.312;9.178;2022-09-03T01:46:21;1.00;;;0.90;;
12418;SDS011;6273;52.312;9.178;2022-09-03T01:52:01;4.60;;;0.90;;
12418;SDS011;6273;52.312;9.178;2022-09-03T01:54:37;1.20;;;1.00;;
12418;SDS011;6273;52.312;9.178;2022-09-03T02:02:35;0.90;;;0.80;;
12418;SDS011;6273;52.312;9.178;2022-09-03T02:05:09;2.13;;;1.03;;
12418;SDS011;6273;52.312;9.178;2022-09-03T02:07:45;2.03;;;1.03;;
12418;SDS011;6273;52.312;9.178;2022-09-03T02:10:20;1.53;;;0.77;;
12418;SDS011;6273;52.312;9.178;2022-09-03T02:12:53;1.87;;;0.90;;
12418;SDS011;6273;52.312;9.178;2022-09-03T02:15:24;2.80;;;0.90;;
12418;SDS011;6273;52.312;9.178;2022-09-03T02:17:52;2.00;;;1.10;;
12418;SDS011;6273;52.312;9.178;2022-09-03T02:20:21;2.40;;;1.17;;
12418;SDS011;6273;52.312;9.178;2022-09-03T02:22:50;5.60;;;1.20;;
12418;SDS011;6273;52.312;9.178;2022-09-03T02:25:18;0.80;;;0.80;;
12418;SDS011;6273;52.312;9.178;2022-09-03T02:27:46;2.03;;;1.30;;
12418;SDS011;6273;52.312;9.178;2022-09-03T02:30:13;1.27;;;0.90;;
12418;SDS011;6273;52.312;9.178;2022-09-03T02:32:39;2.53;;;1.10;;
12418;SDS011;6273;52.312;9.178;2022-09-03T02:35:05;17.87;;;1.20;;
12418;SDS011;6273;52.312;9.178;2022-09-03T02:37:31;2.40;;;1.20;;
12418;SDS011;6273;52.312;9.178;2022-09-03T02:39:57;2.47;;;0.90;;
12418;SDS011;6273;52.312;9.178;2022-09-03T02:42:23;1.10;;;0.80;;
12418;SDS011;6273;52.312;9.178;2022-09-03T02:44:52;1.80;;;1.00;;
12418;SDS011;6273;52.312;9.178;2022-09-03T02:47:24;2.73;;;0.90;;
12418;SDS011;6273;52.312;9.178;2022-09-03T02:49:55;4.47;;;1.07;;
12418;SDS011;6273;52.312;9.178;2022-09-03T02:52:21;2.90;;;1.17;;
12418;SDS011;6273;52.312;9.178;2022-09-03T02:54:46;2.77;;;1.10;;
12418;SDS011;6273;52.312;9.178;2022-09-03T02:57:13;1.67;;;1.00;;
12418;SDS011;6273;52.312;9.178;2022-09-03T02:59:40;3.40;;;0.97;;
12418;SDS011;6273;52.312;9.178;2022-09-03T03:02:10;1.10;;;0.80;;
12418;SDS011;6273;52.312;9.178;2022-09-03T03:04:36;2.40;;;0.90;;
12418;SDS011;6273;52.312;9.178;2022-09-03T03:07:03;7.17;;;1.10;;
12418;SDS011;6273;52.312;9.178;2022-09-03T03:09:29;2.43;;;0.90;;
12418;SDS011;6273;52.312;9.178;2022-09-03T03:11:55;0.80;;;0.80;;
12418;SDS011;6273;52.312;9.178;2022-09-03T03:14:20;3.77;;;1.13;;
12418;SDS011;6273;52.312;9.178;2022-09-03T03:16:47;1.47;;;1.17;;
12418;SDS011;6273;52.312;9.178;2022-09-03T03:19:14;1.03;;;0.90;;
12418;SDS011;6273;52.312;9.178;2022-09-03T03:21:40;2.40;;;0.90;;
12418;SDS011;6273;52.312;9.178;2022-09-03T03:24:05;1.10;;;0.90;;
12418;SDS011;6273;52.312;9.178;2022-09-03T03:26:31;2.20;;;1.23;;
12418;SDS011;6273;52.312;9.178;2022-09-03T03:28:58;6.03;;;1.00;;
12418;SDS011;6273;52.312;9.178;2022-09-03T03:31:24;1.20;;;1.10;;
12418;SDS011;6273;52.312;9.178;2022-09-03T03:33:52;1.37;;;1.27;;
12418;SDS011;6273;52.312;9.178;2022-09-03T03:36:18;4.83;;;0.90;;
12418;SDS011;6273;52.312;9.178;2022-09-03T03:38:45;10.27;;;1.10;;
12418;SDS011;6273;52.312;9.178;2022-09-03T03:41:17;3.90;;;1.27;;
12418;SDS011;6273;52.312;9.178;2022-09-03T03:43:45;1.00;;;0.90;;
12418;SDS011;6273;52.312;9.178;2022-09-03T03:46:11;1.10;;;1.00;;
12418;SDS011;6273;52.312;9.178;2022-09-03T03:48:37;1.23;;;1.00;;
12418;SDS011;6273;52.312;9.178;2022-09-03T03:51:04;2.37;;;1.10;;
12418;SDS011;6273;52.312;9.178;2022-09-03T03:53:31;5.37;;;1.43;;
12418;SDS011;6273;52.312;9.178;2022-09-03T03:56:02;1.33;;;1.07;;
12418;SDS011;6273;52.312;9.178;2022-09-03T03:58:31;3.10;;;1.30;;
12418;SDS011;6273;52.312;9.178;2022-09-03T04:01:04;1.30;;;1.17;;
12418;SDS011;6273;52.312;9.178;2022-09-03T04:03:32;2.30;;;1.03;;
12418;SDS011;6273;52.312;9.178;2022-09-03T04:05:58;2.90;;;1.23;;
12418;SDS011;6273;52.312;9.178;2022-09-03T04:08:27;2.43;;;1.50;;
12418;SDS011;6273;52.312;9.178;2022-09-03T04:10:53;1.87;;;1.40;;
12418;SDS011;6273;52.312;9.178;2022-09-03T04:13:23;1.20;;;0.90;;
12418;SDS011;6273;52.312;9.178;2022-09-03T04:15:48;2.37;;;1.33;;
12418;SDS011;6273;52.312;9.178;2022-09-03T04:18:14;1.40;;;0.90;;
12418;SDS011;6273;52.312;9.178;2022-09-03T04:20:40;4.47;;;1.20;;
12418;SDS011;6273;52.312;9.178;2022-09-03T04:23:05;1.50;;;1.10;;
12418;SDS011;6273;52.312;9.178;2022-09-03T04:25:31;2.20;;;1.17;;
12418;SDS011;6273;52.312;9.178;2022-09-03T04:27:57;1.87;;;1.20;;
12418;SDS011;6273;52.312;9.178;2022-09-03T04:30:26;3.70;;;1.27;;
12418;SDS011;6273;52.312;9.178;2022-09-03T04:32:52;6.70;;;0.97;;
12418;SDS011;6273;52.312;9.178;2022-09-03T04:35:19;4.73;;;1.10;;
12418;SDS011;6273;52.312;9.178;2022-09-03T04:37:45;1.50;;;1.20;;
12418;SDS011;6273;52.312;9.178;2022-09-03T04:40:11;2.50;;;0.83;;
12418;SDS011;6273;52.312;9.178;2022-09-03T04:42:37;1.70;;;1.20;;
12418;SDS011;6273;52.312;9.178;2022-09-03T04:45:03;2.80;;;1.07;;
12418;SDS011;6273;52.312;9.178;2022-09-03T04:47:29;1.10;;;0.90;;
12418;SDS011;6273;52.312;9.178;2022-09-03T04:49:55;1.60;;;0.90;;
12418;SDS011;6273;52.312;9.178;2022-09-03T04:52:21;1.40;;;1.00;;
12418;SDS011;6273;52.312;9.178;2022-09-03T04:54:46;1.90;;;0.90;;
12418;SDS011;6273;52.312;9.178;2022-09-03T04:57:12;1.77;;;1.00;;
12418;SDS011;6273;52.312;9.178;2022-09-03T04:59:38;1.60;;;0.93;;
12418;SDS011;6273;52.312;9.178;2022-09-03T05:02:05;1.07;;;0.97;;
12418;SDS011;6273;52.312;9.178;2022-09-03T05:04:32;3.17;;;1.17;;
12418;SDS011;6273;52.312;9.178;2022-09-03T05:06:58;1.13;;;1.00;;
12418;SDS011;6273;52.312;9.178;2022-09-03T05:09:23;2.77;;;0.93;;
12418;SDS011;6273;52.312;9.178;2022-09-03T05:11:49;2.93;;;1.23;;
12418;SDS011;6273;52.312;9.178;2022-09-03T05:14:14;3.93;;;1.10;;
12418;SDS011;6273;52.312;9.178;2022-09-03T05:16:40;1.20;;;1.10;;
12418;SDS011;6273;52.312;9.178;2022-09-03T05:19:06;1.27;;;1.13;;
12418;SDS011;6273;52.312;9.178;2022-09-03T05:21:32;1.57;;;1.23;;
12418;SDS011;6273;52.312;9.178;2022-09-03T05:24:02;2.70;;;1.00;;
12418;SDS011;6273;52.312;9.178;2022-09-03T05:26:29;3.33;;;1.60;;
12418;SDS011;6273;52.312;9.178;2022-09-03T05:28:58;1.33;;;1.00;;
12418;SDS011;6273;52.312;9.178;2022-09-03T05:31:25;2.50;;;1.13;;
12418;SDS011;6273;52.312;9.178;2022-09-03T05:33:54;1.53;;;1.43;;
12418;SDS011;6273;52.312;9.178;2022-09-03T05:36:22;1.37;;;1.17;;
12418;SDS011;6273;52.312;9.178;2022-09-03T05:38:49;1.50;;;1.00;;
12418;SDS011;6273;52.312;9.178;2022-09-03T05:41:18;1.13;;;1.03;;
12418;SDS011;6273;52.312;9.178;2022-09-03T05:43:46;2.03;;;0.90;;
12418;SDS011;6273;52.312;9.178;2022-09-03T05:46:19;1.83;;;1.10;;
12418;SDS011;6273;52.312;9.178;2022-09-03T05:48:45;1.50;;;1.30;;
12418;SDS011;6273;52.312;9.178;2022-09-03T05:51:12;1.30;;;1.13;;
12418;SDS011;6273;52.312;9.178;2022-09-03T05:53:42;2.00;;;1.00;;
12418;SDS011;6273;52.312;9.178;2022-09-03T05:56:10;1.77;;;1.00;;
12418;SDS011;6273;52.312;9.178;2022-09-03T05:58:44;1.67;;;0.90;;
12418;SDS011;6273;52.312;9.178;2022-09-03T06:01:15;2.20;;;1.10;;
12418;SDS011;6273;52.312;9.178;2022-09-03T06:03:56;1.50;;;1.20;;
12418;SDS011;6273;52.312;9.178;2022-09-03T06:06:23;12.13;;;1.30;;
12418;SDS011;6273;52.312;9.178;2022-09-03T06:08:54;1.33;;;1.20;;
12418;SDS011;6273;52.312;9.178;2022-09-03T06:11:22;1.10;;;1.00;;
12418;SDS011;6273;52.312;9.178;2022-09-03T06:13:55;2.30;;;1.10;;
12418;SDS011;6273;52.312;9.178;2022-09-03T06:16:22;1.87;;;1.17;;
12418;SDS011;6273;52.312;9.178;2022-09-03T06:18:49;1.50;;;1.07;;
12418;SDS011;6273;52.312;9.178;2022-09-03T06:21:15;1.87;;;1.07;;
12418;SDS011;6273;52.312;9.178;2022-09-03T06:23:41;1.40;;;1.00;;
12418;SDS011;6273;52.312;9.178;2022-09-03T06:28:37;1.80;;;1.10;;
12418;SDS011;6273;52.312;9.178;2022-09-03T06:31:05;1.40;;;1.00;;
12418;SDS011;6273;52.312;9.178;2022-09-03T06:33:33;1.07;;;0.80;;
12418;SDS011;6273;52.312;9.178;2022-09-03T06:36:00;0.80;;;0.80;;
12418;SDS011;6273;52.312;9.178;2022-09-03T06:38:31;2.13;;;1.60;;
12418;SDS011;6273;52.312;9.178;2022-09-03T06:41:00;5.77;;;1.10;;
12418;SDS011;6273;52.312;9.178;2022-09-03T06:43:27;4.20;;;1.40;;
12418;SDS011;6273;52.312;9.178;2022-09-03T06:46:04;4.93;;;1.00;;
12418;SDS011;6273;52.312;9.178;2022-09-03T06:48:32;1.23;;;1.00;;
12418;SDS011;6273;52.312;9.178;2022-09-03T06:51:00;4.60;;;1.07;;
12418;SDS011;6273;52.312;9.178;2022-09-03T06:53:29;3.60;;;0.80;;
12418;SDS011;6273;52.312;9.178;2022-09-03T06:55:56;1.60;;;1.43;;
12418;SDS011;6273;52.312;9.178;2022-09-03T06:58:24;1.80;;;1.10;;
12418;SDS011;6273;52.312;9.178;2022-09-03T07:00:53;2.13;;;1.27;;
12418;SDS011;6273;52.312;9.178;2022-09-03T07:03:24;4.20;;;1.20;;
12418;SDS011;6273;52.312;9.178;2022-09-03T07:05:50;1.20;;;1.03;;
12418;SDS011;6273;52.312;9.178;2022-09-03T07:08:15;1.97;;;1.10;;
12418;SDS011;6273;52.312;9.178;2022-09-03T07:10:44;1.43;;;0.90;;
12418;SDS011;6273;52.312;9.178;2022-09-03T07:13:11;1.50;;;1.10;;
12418;SDS011;6273;52.312;9.178;2022-09-03T07:15:37;2.23;;;1.40;;
12418;SDS011;6273;52.312;9.178;2022-09-03T07:18:05;1.13;;;0.80;;
12418;SDS011;6273;52.312;9.178;2022-09-03T07:20:30;4.73;;;0.93;;
12418;SDS011;6273;52.312;9.178;2022-09-03T07:22:56;2.07;;;1.10;;
12418;SDS011;6273;52.312;9.178;2022-09-03T07:25:22;1.20;;;1.10;;
12418;SDS011;6273;52.312;9.178;2022-09-03T07:27:50;1.93;;;1.20;;
12418;SDS011;6273;52.312;9.178;2022-09-03T07:30:16;1.07;;;1.00;;
12418;SDS011;6273;52.312;9.178;2022-09-03T07:32:43;2.40;;;1.13;;
12418;SDS011;6273;52.312;9.178;2022-09-03T07:35:15;2.13;;;0.83;;
12418;SDS011;6273;52.312;9.178;2022-09-03T07:37:42;2.23;;;1.00;;
12418;SDS011;6273;52.312;9.178;2022-09-03T07:40:08;4.20;;;0.97;;
12418;SDS011;6273;52.312;9.178;2022-09-03T07:42:35;3.90;;;1.50;;
12418;SDS011;6273;52.312;9.178;2022-09-03T07:45:07;2.40;;;1.20;;
12418;SDS011;6273;52.312;9.178;2022-09-03T07:47:37;1.53;;;0.93;;
12418;SDS011;6273;52.312;9.178;2022-09-03T07:50:11;1.60;;;0.83;;
12418;SDS011;6273;52.312;9.178;2022-09-03T07:52:36;1.60;;;1.20;;
12418;SDS011;6273;52.312;9.178;2022-09-03T07:55:02;7.87;;;1.50;;
12418;SDS011;6273;52.312;9.178;2022-09-03T07:57:28;2.37;;;1.60;;
12418;SDS011;6273;52.312;9.178;2022-09-03T07:59:54;4.50;;;1.10;;
12418;SDS011;6273;52.312;9.178;2022-09-03T08:02:20;3.60;;;1.03;;
12418;SDS011;6273;52.312;9.178;2022-09-03T08:04:45;4.10;;;1.20;;
12418;SDS011;6273;52.312;9.178;2022-09-03T08:07:11;3.80;;;1.30;;
12418;SDS011;6273;52.312;9.178;2022-09-03T08:09:36;2.43;;;1.30;;
12418;SDS011;6273;52.312;9.178;2022-09-03T08:12:02;1.77;;;1.00;;
12418;SDS011;6273;52.312;9.178;2022-09-03T08:14:28;3.07;;;1.43;;
12418;SDS011;6273;52.312;9.178;2022-09-03T08:16:55;4.50;;;1.50;;
12418;SDS011;6273;52.312;9.178;2022-09-03T08:19:23;2.13;;;1.03;;
12418;SDS011;6273;52.312;9.178;2022-09-03T08:21:49;2.40;;;1.00;;
12418;SDS011;6273;52.312;9.178;2022-09-03T08:24:16;2.60;;;1.00;;
12418;SDS011;6273;52.312;9.178;2022-09-03T08:26:44;3.13;;;1.40;;
12418;SDS011;6273;52.312;9.178;2022-09-03T08:29:10;1.30;;;0.97;;
12418;SDS011;6273;52.312;9.178;2022-09-03T08:31:36;1.00;;;0.90;;
12418;SDS011;6273;52.312;9.178;2022-09-03T08:34:04;1.37;;;1.27;;
12418;SDS011;6273;52.312;9.178;2022-09-03T08:36:31;3.43;;;1.63;;
12418;SDS011;6273;52.312;9.178;2022-09-03T08:38:59;1.77;;;1.13;;
12418;SDS011;6273;52.312;9.178;2022-09-03T08:41:35;1.20;;;1.07;;
12418;SDS011;6273;52.312;9.178;2022-09-03T08:58:06;5.10;;;1.17;;
12418;SDS011;6273;52.312;9.178;2022-09-03T09:03:41;5.53;;;1.23;;
12418;SDS011;6273;52.312;9.178;2022-09-03T09:14:34;1.73;;;1.37;;
12418;SDS011;6273;52.312;9.178;2022-09-03T09:17:08;1.20;;;0.93;;
12418;SDS011;6273;52.312;9.178;2022-09-03T09:22:49;2.67;;;0.90;;
12418;SDS011;6273;52.312;9.178;2022-09-03T09:25:22;1.83;;;1.40;;
12418;SDS011;6273;52.312;9.178;2022-09-03T09:28:00;1.20;;;0.93;;
12418;SDS011;6273;52.312;9.178;2022-09-03T09:30:29;1.53;;;1.00;;
12418;SDS011;6273;52.312;9.178;2022-09-03T09:32:56;1.30;;;1.20;;
12418;SDS011;6273;52.312;9.178;2022-09-03T09:35:24;1.27;;;1.10;;
12418;SDS011;6273;52.312;9.178;2022-09-03T09:37:51;3.43;;;1.40;;
12418;SDS011;6273;52.312;9.178;2022-09-03T09:40:42;2.60;;;1.30;;
12418;SDS011;6273;52.312;9.178;2022-09-03T09:43:12;6.00;;;1.40;;
12418;SDS011;6273;52.312;9.178;2022-09-03T09:45:46;2.90;;;1.67;;
12418;SDS011;6273;52.312;9.178;2022-09-03T09:50:46;3.83;;;1.00;;
12418;SDS011;6273;52.312;9.178;2022-09-03T09:53:12;2.70;;;1.40;;
12418;SDS011;6273;52.312;9.178;2022-09-03T09:58:19;1.73;;;1.23;;
12418;SDS011;6273;52.312;9.178;2022-09-03T10:01:01;2.47;;;1.10;;
12418;SDS011;6273;52.312;9.178;2022-09-03T10:03:50;1.50;;;1.20;;
12418;SDS011;6273;52.312;9.178;2022-09-03T10:06:21;3.77;;;1.40;;
12418;SDS011;6273;52.312;9.178;2022-09-03T10:09:11;17.20;;;1.27;;
12418;SDS011;6273;52.312;9.178;2022-09-03T10:11:40;4.60;;;1.10;;
12418;SDS011;6273;52.312;9.178;2022-09-03T10:14:17;1.30;;;1.20;;
12418;SDS011;6273;52.312;9.178;2022-09-03T10:16:53;1.57;;;1.30;;
12418;SDS011;6273;52.312;9.178;2022-09-03T10:19:28;2.37;;;1.57;;
12418;SDS011;6273;52.312;9.178;2022-09-03T10:22:09;2.00;;;1.10;;
12418;SDS011;6273;52.312;9.178;2022-09-03T10:24:47;1.20;;;1.10;;
12418;SDS011;6273;52.312;9.178;2022-09-03T10:27:23;2.10;;;1.40;;
12418;SDS011;6273;52.312;9.178;2022-09-03T10:29:49;9.57;;;1.50;;
12418;SDS011;6273;52.312;9.178;2022-09-03T10:32:21;10.50;;;1.63;;
12418;SDS011;6273;52.312;9.178;2022-09-03T10:35:00;1.10;;;1.00;;
12418;SDS011;6273;52.312;9.178;2022-09-03T10:37:38;4.97;;;1.43;;
12418;SDS011;6273;52.312;9.178;2022-09-03T10:40:18;2.83;;;1.40;;
12418;SDS011;6273;52.312;9.178;2022-09-03T10:46:10;3.20;;;1.23;;
12418;SDS011;6273;52.312;9.178;2022-09-03T10:54:40;3.87;;;1.40;;
12418;SDS011;6273;52.312;9.178;2022-09-03T11:02:45;1.20;;;1.10;;
12418;SDS011;6273;52.312;9.178;2022-09-03T11:08:04;2.27;;;1.23;;
12418;SDS011;6273;52.312;9.178;2022-09-03T11:10:53;3.67;;;1.27;;
12418;SDS011;6273;52.312;9.178;2022-09-03T11:13:32;4.87;;;1.33;;
12418;SDS011;6273;52.312;9.178;2022-09-03T11:16:22;4.87;;;1.80;;
12418;SDS011;6273;52.312;9.178;2022-09-03T11:18:54;1.10;;;1.00;;
12418;SDS011;6273;52.312;9.178;2022-09-03T11:21:27;1.30;;;1.20;;
12418;SDS011;6273;52.312;9.178;2022-09-03T11:24:04;2.07;;;1.37;;
12418;SDS011;6273;52.312;9.178;2022-09-03T11:26:43;1.47;;;1.30;;
12418;SDS011;6273;52.312;9.178;2022-09-03T11:29:24;2.60;;;1.13;;
12418;SDS011;6273;52.312;9.178;2022-09-03T11:32:25;2.80;;;1.50;;
12418;SDS011;6273;52.312;9.178;2022-09-03T11:35:12;6.40;;;1.33;;
12418;SDS011;6273;52.312;9.178;2022-09-03T11:37:58;2.87;;;1.17;;
12418;SDS011;6273;52.312;9.178;2022-09-03T11:40:36;2.23;;;1.13;;
12418;SDS011;6273;52.312;9.178;2022-09-03T11:43:13;2.40;;;1.00;;
12418;SDS011;6273;52.312;9.178;2022-09-03T11:46:09;5.93;;;1.30;;
12418;SDS011;6273;52.312;9.178;2022-09-03T11:48:46;13.70;;;1.63;;
12418;SDS011;6273;52.312;9.178;2022-09-03T11:51:20;3.83;;;1.00;;
12418;SDS011;6273;52.312;9.178;2022-09-03T11:53:53;2.87;;;1.17;;
12418;SDS011;6273;52.312;9.178;2022-09-03T11:56:20;4.77;;;1.27;;
12418;SDS011;6273;52.312;9.178;2022-09-03T11:58:57;1.20;;;1.10;;
12418;SDS011;6273;52.312;9.178;2022-09-03T12:01:40;3.97;;;1.77;;
12418;SDS011;6273;52.312;9.178;2022-09-03T12:04:25;4.60;;;1.67;;
12418;SDS011;6273;52.312;9.178;2022-09-03T12:17:54;1.00;;;0.90;;
12418;SDS011;6273;52.312;9.178;2022-09-03T12:21:08;4.53;;;1.13;;
12418;SDS011;6273;52.312;9.178;2022-09-03T12:26:06;3.00;;;1.30;;
12418;SDS011;6273;52.312;9.178;2022-09-03T12:28:34;2.30;;;0.90;;
12418;SDS011;6273;52.312;9.178;2022-09-03T12:31:06;3.57;;;1.47;;
12418;SDS011;6273;52.312;9.178;2022-09-03T12:33:41;6.07;;;1.10;;
12418;SDS011;6273;52.312;9.178;2022-09-03T12:36:08;1.40;;;0.90;;
12418;SDS011;6273;52.312;9.178;2022-09-03T12:38:34;3.40;;;1.07;;
12418;SDS011;6273;52.312;9.178;2022-09-03T12:40:59;1.30;;;1.10;;
12418;SDS011;6273;52.312;9.178;2022-09-03T12:43:26;1.87;;;0.80;;
12418;SDS011;6273;52.312;9.178;2022-09-03T12:45:53;1.70;;;1.30;;
12418;SDS011;6273;52.312;9.178;2022-09-03T12:48:19;1.37;;;1.00;;
12418;SDS011;6273;52.312;9.178;2022-09-03T12:50:46;2.20;;;1.13;;
12418;SDS011;6273;52.312;9.178;2022-09-03T12:53:23;2.20;;;1.30;;
12418;SDS011;6273;52.312;9.178;2022-09-03T12:55:56;5.10;;;0.90;;
12418;SDS011;6273;52.312;9.178;2022-09-03T13:00:57;4.50;;;1.30;;
12418;SDS011;6273;52.312;9.178;2022-09-03T13:03:29;4.40;;;1.07;;
12418;SDS011;6273;52.312;9.178;2022-09-03T13:06:12;1.57;;;1.10;;
12418;SDS011;6273;52.312;9.178;2022-09-03T13:08:43;1.27;;;0.80;;
12418;SDS011;6273;52.312;9.178;2022-09-03T13:11:09;2.33;;;1.10;;
12418;SDS011;6273;52.312;9.178;2022-09-03T13:13:35;2.90;;;1.07;;
12418;SDS011;6273;52.312;9.178;2022-09-03T13:29:52;1.93;;;1.30;;
12418;SDS011;6273;52.312;9.178;2022-09-03T13:32:58;1.60;;;1.50;;
12418;SDS011;6273;52.312;9.178;2022-09-03T13:35:32;2.30;;;1.10;;
12418;SDS011;6273;52.312;9.178;2022-09-03T13:38:12;1.57;;;0.90;;
12418;SDS011;6273;52.312;9.178;2022-09-03T13:41:00;1.30;;;1.20;;
12418;SDS011;6273;52.312;9.178;2022-09-03T13:44:15;2.30;;;1.10;;
12418;SDS011;6273;52.312;9.178;2022-09-03T13:46:47;1.40;;;1.30;;
12418;SDS011;6273;52.312;9.178;2022-09-03T13:52:41;5.63;;;1.20;;
12418;SDS011;6273;52.312;9.178;2022-09-03T13:55:51;1.50;;;1.20;;
12418;SDS011;6273;52.312;9.178;2022-09-03T13:58:25;3.10;;;1.00;;
12418;SDS011;6273;52.312;9.178;2022-09-03T14:03:30;7.50;;;1.80;;
12418;SDS011;6273;52.312;9.178;2022-09-03T14:08:56;5.60;;;0.93;;
12418;SDS011;6273;52.312;9.178;2022-09-03T14:17:09;4.20;;;1.50;;
12418;SDS011;6273;52.312;9.178;2022-09-03T14:20:01;3.50;;;1.33;;
12418;SDS011;6273;52.312;9.178;2022-09-03T14:22:50;1.70;;;1.50;;
12418;SDS011;6273;52.312;9.178;2022-09-03T14:25:51;1.20;;;1.10;;
12418;SDS011;6273;52.312;9.178;2022-09-03T14:36:37;3.13;;;1.27;;
12418;SDS011;6273;52.312;9.178;2022-09-03T14:39:37;3.47;;;0.73;;
12418;SDS011;6273;52.312;9.178;2022-09-03T14:59:20;2.93;;;1.13;;
12418;SDS011;6273;52.312;9.178;2022-09-03T15:07:41;3.60;;;1.10;;
12418;SDS011;6273;52.312;9.178;2022-09-03T15:10:26;2.50;;;1.23;;
12418;SDS011;6273;52.312;9.178;2022-09-03T15:13:20;3.50;;;1.07;;
12418;SDS011;6273;52.312;9.178;2022-09-03T15:15:58;3.00;;;1.00;;
12418;SDS011;6273;52.312;9.178;2022-09-03T15:24:11;1.13;;;0.90;;
12418;SDS011;6273;52.312;9.178;2022-09-03T15:29:36;4.20;;;1.30;;
12418;SDS011;6273;52.312;9.178;2022-09-03T15:32:25;2.00;;;0.97;;
12418;SDS011;6273;52.312;9.178;2022-09-03T15:37:54;1.37;;;1.17;;
12418;SDS011;6273;52.312;9.178;2022-09-03T15:40:35;2.57;;;1.20;;
12418;SDS011;6273;52.312;9.178;2022-09-03T15:43:29;1.37;;;1.20;;
12418;SDS011;6273;52.312;9.178;2022-09-03T15:45:58;2.13;;;1.70;;
12418;SDS011;6273;52.312;9.178;2022-09-03T15:48:39;5.03;;;1.00;;
12418;SDS011;6273;52.312;9.178;2022-09-03T15:51:24;2.80;;;1.10;;
12418;SDS011;6273;52.312;9.178;2022-09-03T15:56:26;5.80;;;1.40;;
12418;SDS011;6273;52.312;9.178;2022-09-03T15:59:14;1.30;;;1.00;;
12418;SDS011;6273;52.312;9.178;2022-09-03T16:01:50;3.50;;;1.30;;
12418;SDS011;6273;52.312;9.178;2022-09-03T16:04:38;3.40;;;0.90;;
12418;SDS011;6273;52.312;9.178;2022-09-03T16:15:08;1.07;;;1.00;;
12418;SDS011;6273;52.312;9.178;2022-09-03T16:17:52;1.97;;;0.80;;
12418;SDS011;6273;52.312;9.178;2022-09-03T16:23:09;1.97;;;1.30;;
12418;SDS011;6273;52.312;9.178;2022-09-03T16:34:27;5.10;;;0.97;;
12418;SDS011;6273;52.312;9.178;2022-09-03T16:42:50;1.50;;;1.40;;
12418;SDS011;6273;52.312;9.178;2022-09-03T16:45:43;2.37;;;1.23;;
12418;SDS011;6273;52.312;9.178;2022-09-03T16:50:59;1.10;;;1.00;;
12418;SDS011;6273;52.312;9.178;2022-09-03T16:56:30;3.30;;;1.13;;
12418;SDS011;6273;52.312;9.178;2022-09-03T17:18:49;2.30;;;1.53;;
12418;SDS011;6273;52.312;9.178;2022-09-03T17:26:38;1.40;;;1.30;;
12418;SDS011;6273;52.312;9.178;2022-09-03T17:32:21;1.50;;;1.40;;
12418;SDS011;6273;52.312;9.178;2022-09-03T17:34:59;3.10;;;1.40;;
12418;SDS011;6273;52.312;9.178;2022-09-03T17:46:41;3.63;;;1.83;;
12418;SDS011;6273;52.312;9.178;2022-09-03T17:49:19;2.73;;;1.67;;
12418;SDS011;6273;52.312;9.178;2022-09-03T17:51:49;2.17;;;1.40;;
12418;SDS011;6273;52.312;9.178;2022-09-03T17:54:34;3.77;;;1.60;;
12418;SDS011;6273;52.312;9.178;2022-09-03T18:05:18;2.23;;;1.57;;
12418;SDS011;6273;52.312;9.178;2022-09-03T18:07:59;4.63;;;1.70;;
12418;SDS011;6273;52.312;9.178;2022-09-03T18:10:47;4.30;;;1.67;;
12418;SDS011;6273;52.312;9.178;2022-09-03T18:16:03;3.57;;;1.17;;
12418;SDS011;6273;52.312;9.178;2022-09-03T18:18:35;5.13;;;2.33;;
12418;SDS011;6273;52.312;9.178;2022-09-03T18:21:09;2.10;;;1.50;;
12418;SDS011;6273;52.312;9.178;2022-09-03T18:24:05;4.10;;;1.53;;
12418;SDS011;6273;52.312;9.178;2022-09-03T18:30:05;2.00;;;1.90;;
12418;SDS011;6273;52.312;9.178;2022-09-03T18:32:52;1.70;;;1.60;;
12418;SDS011;6273;52.312;9.178;2022-09-03T18:35:36;2.70;;;1.90;;
12418;SDS011;6273;52.312;9.178;2022-09-03T18:38:30;1.40;;;1.20;;
12418;SDS011;6273;52.312;9.178;2022-09-03T18:44:19;4.03;;;1.67;;
12418;SDS011;6273;52.312;9.178;2022-09-03T18:50:28;3.97;;;1.30;;
12418;SDS011;6273;52.312;9.178;2022-09-03T18:53:51;2.00;;;1.80;;
12418;SDS011;6273;52.312;9.178;2022-09-03T18:56:51;2.50;;;1.30;;
12418;SDS011;6273;52.312;9.178;2022-09-03T19:02:38;4.50;;;1.70;;
12418;SDS011;6273;52.312;9.178;2022-09-03T19:15:11;3.23;;;2.23;;
12418;SDS011;6273;52.312;9.178;2022-09-03T19:18:13;1.80;;;1.70;;
12418;SDS011;6273;52.312;9.178;2022-09-03T19:21:44;2.60;;;1.70;;
12418;SDS011;6273;52.312;9.178;2022-09-03T19:24:39;1.70;;;1.60;;
12418;SDS011;6273;52.312;9.178;2022-09-03T19:36:15;3.30;;;1.47;;
12418;SDS011;6273;52.312;9.178;2022-09-03T19:39:05;1.70;;;1.57;;
12418;SDS011;6273;52.312;9.178;2022-09-03T19:42:20;2.70;;;1.90;;
12418;SDS011;6273;52.312;9.178;2022-09-03T19:51:07;6.77;;;3.80;;
12418;SDS011;6273;52.312;9.178;2022-09-03T19:54:12;5.90;;;3.30;;
12418;SDS011;6273;52.312;9.178;2022-09-03T19:56:57;3.83;;;2.50;;
12418;SDS011;6273;52.312;9.178;2022-09-03T19:59:43;8.10;;;2.90;;
12418;SDS011;6273;52.312;9.178;2022-09-03T20:02:31;3.40;;;2.27;;
12418;SDS011;6273;52.312;9.178;2022-09-03T20:05:17;8.00;;;2.20;;
12418;SDS011;6273;52.312;9.178;2022-09-03T20:08:03;6.70;;;2.07;;
12418;SDS011;6273;52.312;9.178;2022-09-03T20:10:49;2.00;;;1.90;;
12418;SDS011;6273;52.312;9.178;2022-09-03T20:13:19;2.87;;;2.27;;
12418;SDS011;6273;52.312;9.178;2022-09-03T20:18:48;3.07;;;2.50;;
12418;SDS011;6273;52.312;9.178;2022-09-03T20:21:54;2.33;;;1.70;;
12418;SDS011;6273;52.312;9.178;2022-09-03T20:27:21;4.30;;;2.10;;
12418;SDS011;6273;52.312;9.178;2022-09-03T20:30:03;6.77;;;1.73;;
12418;SDS011;6273;52.312;9.178;2022-09-03T20:32:42;9.10;;;2.17;;
12418;SDS011;6273;52.312;9.178;2022-09-03T20:35:35;2.50;;;2.20;;
12418;SDS011;6273;52.312;9.178;2022-09-03T20:49:54;9.87;;;2.03;;
12418;SDS011;6273;52.312;9.178;2022-09-03T20:55:35;5.10;;;2.20;;
12418;SDS011;6273;52.312;9.178;2022-09-03T21:00:46;4.50;;;2.80;;
12418;SDS011;6273;52.312;9.178;2022-09-03T21:14:33;3.83;;;2.03;;
12418;SDS011;6273;52.312;9.178;2022-09-03T21:25:50;4.20;;;1.93;;
12418;SDS011;6273;52.312;9.178;2022-09-03T21:28:33;2.83;;;2.20;;
12418;SDS011;6273;52.312;9.178;2022-09-03T21:31:08;1.90;;;1.40;;
12418;SDS011;6273;52.312;9.178;2022-09-03T21:33:47;5.77;;;2.37;;
12418;SDS011;6273;52.312;9.178;2022-09-03T21:36:23;2.50;;;1.70;;
12418;SDS011;6273;52.312;9.178;2022-09-03T21:39:02;2.57;;;2.37;;